メインページ
METAR-TAF:

METAR-TAF

空港 :

平壌国際空港

平壌, 朝鮮民主主義人民共和国

緯度: 39-02N, 経度: 125-47E, 海抜: 36m

METAR: 見つかりません

時間: 22:57 (14:27 UTC)

予報

当レポートは10時間17分前の04:10(UTC)に作成
予報は20日の 06時(UTC)から 21日の 06時(UTC)まで有効
北/北西の風 6kt
視程10km以上
高度1000ftの千切れ雲あり

TAF: ZKPY 200410Z 2006/2106 34003MPS 9999 BKN010 TX32/2006Z TN22/2021Z

4,000以上の空港の気象観測と天気予報(METAR報とTAF報)

利用可能な観測所は地図上に黄色い丸と赤い丸で示す。

丸の上にカーソルを重ねると観測所名を参照できる。

次にクリックすると気象観測と天気予報を参照できる。

マップの切り替え:黒色「×」印の緑ボタンをクリックして拡大、「-」印の緑ボタンをクリックして縮小、緑色の三角印をクリックして隣りの地図に切り替え


METAR-TAF: